sensor_id;sensor_type;location;lat;lon;timestamp;pressure;altitude;pressure_sealevel;temperature;humidity
60015;BME280;45867;52.480;6.056;2024-03-23T00:53:42;99053.31;;;5.18;100.00
60015;BME280;45867;52.480;6.056;2024-03-23T00:56:08;99019.84;;;4.99;100.00
60015;BME280;45867;52.480;6.056;2024-03-23T00:58:33;99013.81;;;4.94;100.00
60015;BME280;45867;52.480;6.056;2024-03-23T01:00:59;99054.66;;;5.10;100.00
60015;BME280;45867;52.480;6.056;2024-03-23T01:03:25;98996.16;;;4.70;100.00
60015;BME280;45867;52.480;6.056;2024-03-23T01:05:52;99000.50;;;4.85;100.00
60015;BME280;45867;52.480;6.056;2024-03-23T01:08:17;99035.34;;;4.96;100.00
60015;BME280;45867;52.480;6.056;2024-03-23T01:10:54;99026.19;;;4.88;100.00
60015;BME280;45867;52.480;6.056;2024-03-23T01:13:19;99019.91;;;4.89;100.00
60015;BME280;45867;52.480;6.056;2024-03-23T01:15:48;99018.06;;;4.89;100.00
60015;BME280;45867;52.480;6.056;2024-03-23T01:18:14;99018.59;;;4.92;100.00
60015;BME280;45867;52.480;6.056;2024-03-23T01:20:40;99009.97;;;4.86;100.00
60015;BME280;45867;52.480;6.056;2024-03-23T01:23:06;98997.69;;;4.71;100.00
60015;BME280;45867;52.480;6.056;2024-03-23T01:25:32;99007.97;;;4.67;100.00
60015;BME280;45867;52.480;6.056;2024-03-23T01:27:58;98999.09;;;4.58;100.00
60015;BME280;45867;52.480;6.056;2024-03-23T01:30:27;98994.66;;;4.54;100.00
60015;BME280;45867;52.480;6.056;2024-03-23T01:32:56;98976.88;;;4.45;100.00
60015;BME280;45867;52.480;6.056;2024-03-23T01:35:22;98975.75;;;4.57;100.00
60015;BME280;45867;52.480;6.056;2024-03-23T01:37:47;98957.47;;;4.41;100.00
60015;BME280;45867;52.480;6.056;2024-03-23T01:40:14;98937.56;;;4.40;100.00
60015;BME280;45867;52.480;6.056;2024-03-23T01:42:41;98955.28;;;4.59;100.00
60015;BME280;45867;52.480;6.056;2024-03-23T01:45:08;98946.38;;;4.55;100.00
60015;BME280;45867;52.480;6.056;2024-03-23T01:47:34;98920.25;;;4.39;100.00
60015;BME280;45867;52.480;6.056;2024-03-23T01:49:59;98926.25;;;4.45;100.00
60015;BME280;45867;52.480;6.056;2024-03-23T01:52:27;98912.44;;;4.29;100.00
60015;BME280;45867;52.480;6.056;2024-03-23T01:54:53;98913.75;;;4.32;100.00
60015;BME280;45867;52.480;6.056;2024-03-23T01:57:22;98885.53;;;4.13;100.00
60015;BME280;45867;52.480;6.056;2024-03-23T01:59:48;98886.81;;;4.21;100.00
60015;BME280;45867;52.480;6.056;2024-03-23T02:02:15;98858.59;;;4.03;100.00
60015;BME280;45867;52.480;6.056;2024-03-23T02:04:41;98835.88;;;3.88;100.00
60015;BME280;45867;52.480;6.056;2024-03-23T02:07:07;98843.44;;;3.94;100.00
60015;BME280;45867;52.480;6.056;2024-03-23T02:09:34;98839.50;;;3.97;100.00
60015;BME280;45867;52.480;6.056;2024-03-23T02:12:01;98795.31;;;3.80;100.00
60015;BME280;45867;52.480;6.056;2024-03-23T02:14:28;98829.31;;;3.90;100.00
60015;BME280;45867;52.480;6.056;2024-03-23T02:16:53;98799.47;;;3.81;100.00
60015;BME280;45867;52.480;6.056;2024-03-23T02:19:19;98808.13;;;3.82;100.00
60015;BME280;45867;52.480;6.056;2024-03-23T02:21:45;98804.94;;;3.90;100.00
60015;BME280;45867;52.480;6.056;2024-03-23T02:24:11;98785.03;;;3.89;100.00
60015;BME280;45867;52.480;6.056;2024-03-23T02:26:36;98770.63;;;3.86;100.00
60015;BME280;45867;52.480;6.056;2024-03-23T02:29:02;98768.03;;;3.81;100.00
60015;BME280;45867;52.480;6.056;2024-03-23T02:31:27;98740.09;;;3.71;100.00
60015;BME280;45867;52.480;6.056;2024-03-23T02:33:56;98734.00;;;3.81;100.00
60015;BME280;45867;52.480;6.056;2024-03-23T02:36:22;98737.88;;;3.89;100.00
60015;BME280;45867;52.480;6.056;2024-03-23T02:38:47;98713.88;;;3.76;100.00
60015;BME280;45867;52.480;6.056;2024-03-23T02:41:13;98720.16;;;3.70;100.00
60015;BME280;45867;52.480;6.056;2024-03-23T02:43:39;98706.84;;;3.67;100.00
60015;BME280;45867;52.480;6.056;2024-03-23T02:46:08;98701.84;;;3.70;100.00
60015;BME280;45867;52.480;6.056;2024-03-23T02:48:33;98698.94;;;3.77;100.00
60015;BME280;45867;52.480;6.056;2024-03-23T02:51:00;98683.31;;;3.62;100.00
60015;BME280;45867;52.480;6.056;2024-03-23T02:53:26;98686.72;;;3.57;100.00
60015;BME280;45867;52.480;6.056;2024-03-23T02:55:52;98678.38;;;3.55;100.00
60015;BME280;45867;52.480;6.056;2024-03-23T02:58:18;98675.78;;;3.55;100.00
60015;BME280;45867;52.480;6.056;2024-03-23T03:00:43;98646.56;;;3.32;100.00
60015;BME280;45867;52.480;6.056;2024-03-23T03:03:09;98633.34;;;3.53;100.00
60015;BME280;45867;52.480;6.056;2024-03-23T03:05:35;98612.19;;;3.49;100.00
60015;BME280;45867;52.480;6.056;2024-03-23T03:08:00;98601.47;;;3.41;100.00
60015;BME280;45867;52.480;6.056;2024-03-23T03:10:28;98617.16;;;3.46;100.00
60015;BME280;45867;52.480;6.056;2024-03-23T03:12:54;98566.50;;;3.26;100.00
60015;BME280;45867;52.480;6.056;2024-03-23T03:15:20;98582.66;;;3.39;100.00
60015;BME280;45867;52.480;6.056;2024-03-23T03:17:45;98582.16;;;3.37;100.00
60015;BME280;45867;52.480;6.056;2024-03-23T03:20:10;98565.19;;;3.29;100.00
60015;BME280;45867;52.480;6.056;2024-03-23T03:22:36;98563.31;;;3.34;100.00
60015;BME280;45867;52.480;6.056;2024-03-23T03:25:02;98573.81;;;3.29;100.00
60015;BME280;45867;52.480;6.056;2024-03-23T03:27:27;98567.03;;;3.28;100.00
60015;BME280;45867;52.480;6.056;2024-03-23T03:29:55;98548.97;;;3.27;100.00
60015;BME280;45867;52.480;6.056;2024-03-23T03:32:22;98523.03;;;3.30;100.00
60015;BME280;45867;52.480;6.056;2024-03-23T03:34:47;98511.50;;;3.31;100.00
60015;BME280;45867;52.480;6.056;2024-03-23T03:37:13;98520.91;;;3.32;100.00
60015;BME280;45867;52.480;6.056;2024-03-23T03:39:40;98521.16;;;3.36;100.00
60015;BME280;45867;52.480;6.056;2024-03-23T03:42:06;98514.09;;;3.37;100.00
60015;BME280;45867;52.480;6.056;2024-03-23T03:44:35;98481.25;;;3.20;100.00
60015;BME280;45867;52.480;6.056;2024-03-23T03:47:01;98504.97;;;3.29;100.00
60015;BME280;45867;52.480;6.056;2024-03-23T03:49:27;98484.94;;;3.19;100.00
60015;BME280;45867;52.480;6.056;2024-03-23T03:51:52;98488.50;;;3.28;100.00
60015;BME280;45867;52.480;6.056;2024-03-23T03:54:18;98488.53;;;3.23;100.00
60015;BME280;45867;52.480;6.056;2024-03-23T03:56:46;98482.25;;;3.24;100.00
60015;BME280;45867;52.480;6.056;2024-03-23T03:59:12;98446.50;;;3.15;100.00
60015;BME280;45867;52.480;6.056;2024-03-23T04:01:39;98462.94;;;3.20;100.00
60015;BME280;45867;52.480;6.056;2024-03-23T04:04:07;98419.41;;;3.00;100.00
60015;BME280;45867;52.480;6.056;2024-03-23T04:06:33;98454.84;;;3.17;100.00
60015;BME280;45867;52.480;6.056;2024-03-23T04:08:59;98411.03;;;2.98;100.00
60015;BME280;45867;52.480;6.056;2024-03-23T04:11:24;98434.91;;;3.21;100.00
60015;BME280;45867;52.480;6.056;2024-03-23T04:13:50;98415.75;;;2.96;100.00
60015;BME280;45867;52.480;6.056;2024-03-23T04:16:29;98416.19;;;3.08;100.00
60015;BME280;45867;52.480;6.056;2024-03-23T04:18:55;98394.38;;;3.18;100.00
60015;BME280;45867;52.480;6.056;2024-03-23T04:21:21;98409.56;;;3.16;100.00
60015;BME280;45867;52.480;6.056;2024-03-23T04:23:47;98374.78;;;2.86;100.00
60015;BME280;45867;52.480;6.056;2024-03-23T04:26:13;98399.69;;;3.08;100.00
60015;BME280;45867;52.480;6.056;2024-03-23T04:28:38;98383.63;;;2.91;100.00
60015;BME280;45867;52.480;6.056;2024-03-23T04:31:04;98403.25;;;2.93;100.00
60015;BME280;45867;52.480;6.056;2024-03-23T04:33:30;98385.78;;;2.83;100.00
60015;BME280;45867;52.480;6.056;2024-03-23T04:35:55;98363.81;;;2.84;100.00
60015;BME280;45867;52.480;6.056;2024-03-23T04:38:21;98384.16;;;2.93;100.00
60015;BME280;45867;52.480;6.056;2024-03-23T04:40:57;98385.25;;;2.86;100.00
60015;BME280;45867;52.480;6.056;2024-03-23T04:43:23;98390.78;;;2.80;100.00
60015;BME280;45867;52.480;6.056;2024-03-23T04:45:52;98377.41;;;2.86;100.00
60015;BME280;45867;52.480;6.056;2024-03-23T04:48:21;98341.03;;;2.56;100.00
60015;BME280;45867;52.480;6.056;2024-03-23T04:50:48;98371.56;;;2.65;100.00
60015;BME280;45867;52.480;6.056;2024-03-23T04:53:13;98374.84;;;2.81;100.00
60015;BME280;45867;52.480;6.056;2024-03-23T04:55:39;98362.34;;;2.73;100.00
60015;BME280;45867;52.480;6.056;2024-03-23T04:58:04;98381.78;;;2.91;100.00
60015;BME280;45867;52.480;6.056;2024-03-23T05:00:30;98371.38;;;2.86;100.00
60015;BME280;45867;52.480;6.056;2024-03-23T05:02:55;98374.59;;;2.78;100.00
60015;BME280;45867;52.480;6.056;2024-03-23T05:05:21;98348.81;;;2.66;100.00
60015;BME280;45867;52.480;6.056;2024-03-23T05:07:46;98385.34;;;2.76;100.00
60015;BME280;45867;52.480;6.056;2024-03-23T05:10:12;98389.53;;;2.72;100.00
60015;BME280;45867;52.480;6.056;2024-03-23T05:12:38;98371.53;;;2.71;100.00
60015;BME280;45867;52.480;6.056;2024-03-23T05:15:07;98386.66;;;2.74;100.00
60015;BME280;45867;52.480;6.056;2024-03-23T05:17:33;98383.84;;;2.65;100.00
60015;BME280;45867;52.480;6.056;2024-03-23T05:19:59;98346.44;;;2.35;100.00
60015;BME280;45867;52.480;6.056;2024-03-23T05:22:28;98391.72;;;2.65;100.00
60015;BME280;45867;52.480;6.056;2024-03-23T05:24:54;98367.19;;;2.56;100.00
60015;BME280;45867;52.480;6.056;2024-03-23T05:27:19;98349.13;;;2.59;100.00
60015;BME280;45867;52.480;6.056;2024-03-23T05:29:45;98367.34;;;2.70;100.00
60015;BME280;45867;52.480;6.056;2024-03-23T05:32:10;98366.28;;;2.71;100.00
60015;BME280;45867;52.480;6.056;2024-03-23T05:34:36;98370.63;;;2.80;100.00
60015;BME280;45867;52.480;6.056;2024-03-23T05:37:02;98359.09;;;2.86;100.00
60015;BME280;45867;52.480;6.056;2024-03-23T05:39:34;98357.81;;;2.84;100.00
60015;BME280;45867;52.480;6.056;2024-03-23T05:42:00;98381.72;;;3.01;100.00
60015;BME280;45867;52.480;6.056;2024-03-23T05:44:26;98364.94;;;3.02;100.00
60015;BME280;45867;52.480;6.056;2024-03-23T05:46:53;98371.16;;;3.11;100.00
60015;BME280;45867;52.480;6.056;2024-03-23T05:49:18;98386.09;;;3.11;100.00
60015;BME280;45867;52.480;6.056;2024-03-23T05:51:44;98393.69;;;3.07;100.00
60015;BME280;45867;52.480;6.056;2024-03-23T05:54:09;98351.38;;;2.71;100.00
60015;BME280;45867;52.480;6.056;2024-03-23T05:56:35;98400.25;;;3.05;100.00
60015;BME280;45867;52.480;6.056;2024-03-23T05:59:00;98388.31;;;2.94;100.00
60015;BME280;45867;52.480;6.056;2024-03-23T06:01:29;98381.88;;;2.81;100.00
60015;BME280;45867;52.480;6.056;2024-03-23T06:03:57;98380.88;;;2.77;100.00
60015;BME280;45867;52.480;6.056;2024-03-23T06:06:24;98433.47;;;3.04;100.00
60015;BME280;45867;52.480;6.056;2024-03-23T06:08:49;98407.19;;;2.91;100.00
60015;BME280;45867;52.480;6.056;2024-03-23T06:11:15;98436.09;;;3.04;100.00
60015;BME280;45867;52.480;6.056;2024-03-23T06:13:41;98457.22;;;3.13;100.00
60015;BME280;45867;52.480;6.056;2024-03-23T06:16:07;98459.19;;;3.26;100.00
60015;BME280;45867;52.480;6.056;2024-03-23T06:18:34;98463.63;;;3.31;100.00
60015;BME280;45867;52.480;6.056;2024-03-23T06:20:59;98467.44;;;3.44;100.00
60015;BME280;45867;52.480;6.056;2024-03-23T06:23:25;98453.44;;;3.53;100.00
60015;BME280;45867;52.480;6.056;2024-03-23T06:25:53;98473.47;;;3.68;100.00
60015;BME280;45867;52.480;6.056;2024-03-23T06:28:19;98485.28;;;3.90;100.00
60015;BME280;45867;52.480;6.056;2024-03-23T06:30:44;98500.69;;;3.96;100.00
60015;BME280;45867;52.480;6.056;2024-03-23T06:33:10;98506.63;;;4.02;100.00
60015;BME280;45867;52.480;6.056;2024-03-23T06:35:35;98520.63;;;4.16;100.00
60015;BME280;45867;52.480;6.056;2024-03-23T06:38:02;98518.66;;;4.03;100.00
60015;BME280;45867;52.480;6.056;2024-03-23T06:40:27;98519.97;;;4.06;100.00
60015;BME280;45867;52.480;6.056;2024-03-23T06:42:53;98567.13;;;4.30;100.00
60015;BME280;45867;52.480;6.056;2024-03-23T06:45:19;98559.38;;;4.19;100.00
60015;BME280;45867;52.480;6.056;2024-03-23T06:47:44;98578.75;;;4.23;100.00
60015;BME280;45867;52.480;6.056;2024-03-23T06:50:10;98573.00;;;4.21;100.00
60015;BME280;45867;52.480;6.056;2024-03-23T06:52:35;98608.78;;;4.55;100.00
60015;BME280;45867;52.480;6.056;2024-03-23T06:55:01;98627.69;;;4.76;100.00
60015;BME280;45867;52.480;6.056;2024-03-23T06:57:27;98639.22;;;4.80;100.00
60015;BME280;45867;52.480;6.056;2024-03-23T06:59:53;98639.94;;;4.62;100.00
60015;BME280;45867;52.480;6.056;2024-03-23T07:02:22;98629.63;;;4.47;100.00
60015;BME280;45867;52.480;6.056;2024-03-23T07:04:48;98681.81;;;4.48;100.00
60015;BME280;45867;52.480;6.056;2024-03-23T07:07:14;98716.53;;;4.64;100.00
60015;BME280;45867;52.480;6.056;2024-03-23T07:09:39;98749.91;;;4.58;100.00
60015;BME280;45867;52.480;6.056;2024-03-23T07:12:05;98786.63;;;4.58;100.00
60015;BME280;45867;52.480;6.056;2024-03-23T07:14:31;98823.13;;;4.50;100.00
60015;BME280;45867;52.480;6.056;2024-03-23T07:16:56;98851.00;;;4.40;100.00
60015;BME280;45867;52.480;6.056;2024-03-23T07:19:23;98861.59;;;4.25;100.00
60015;BME280;45867;52.480;6.056;2024-03-23T07:21:49;98898.09;;;4.16;100.00
60015;BME280;45867;52.480;6.056;2024-03-23T07:24:14;98901.50;;;4.17;100.00
60015;BME280;45867;52.480;6.056;2024-03-23T07:26:42;98917.00;;;4.13;100.00
60015;BME280;45867;52.480;6.056;2024-03-23T07:29:07;98903.84;;;4.18;100.00
60015;BME280;45867;52.480;6.056;2024-03-23T07:31:33;98905.16;;;4.21;100.00
60015;BME280;45867;52.480;6.056;2024-03-23T07:33:58;98923.56;;;4.55;100.00
60015;BME280;45867;52.480;6.056;2024-03-23T07:36:25;98907.22;;;4.63;100.00
60015;BME280;45867;52.480;6.056;2024-03-23T07:38:51;98894.63;;;5.00;100.00
60015;BME280;45867;52.480;6.056;2024-03-23T07:41:18;98878.84;;;5.29;100.00
60015;BME280;45867;52.480;6.056;2024-03-23T07:43:44;98881.94;;;5.60;100.00
60015;BME280;45867;52.480;6.056;2024-03-23T07:46:10;98883.94;;;5.44;100.00
60015;BME280;45867;52.480;6.056;2024-03-23T07:48:36;98876.84;;;5.45;100.00
60015;BME280;45867;52.480;6.056;2024-03-23T07:51:20;98830.50;;;5.54;100.00
60015;BME280;45867;52.480;6.056;2024-03-23T07:53:47;98874.25;;;5.64;100.00
60015;BME280;45867;52.480;6.056;2024-03-23T07:56:12;98877.97;;;5.39;100.00
60015;BME280;45867;52.480;6.056;2024-03-23T07:58:38;98935.41;;;5.45;100.00
60015;BME280;45867;52.480;6.056;2024-03-23T08:01:05;98959.91;;;5.41;100.00
60015;BME280;45867;52.480;6.056;2024-03-23T08:03:35;98977.94;;;5.18;100.00
60015;BME280;45867;52.480;6.056;2024-03-23T08:06:18;99034.38;;;5.21;100.00
60015;BME280;45867;52.480;6.056;2024-03-23T08:08:47;99066.78;;;5.06;100.00
60015;BME280;45867;52.480;6.056;2024-03-23T08:11:14;99055.97;;;4.68;100.00
60015;BME280;45867;52.480;6.056;2024-03-23T08:13:40;99067.25;;;4.68;100.00
60015;BME280;45867;52.480;6.056;2024-03-23T08:16:09;99102.41;;;4.73;100.00
60015;BME280;45867;52.480;6.056;2024-03-23T08:18:35;99074.88;;;4.65;100.00
60015;BME280;45867;52.480;6.056;2024-03-23T08:21:05;99089.72;;;4.90;100.00
60015;BME280;45867;52.480;6.056;2024-03-23T08:23:32;99086.50;;;5.03;100.00
60015;BME280;45867;52.480;6.056;2024-03-23T08:26:00;99091.94;;;4.67;100.00
60015;BME280;45867;52.480;6.056;2024-03-23T08:28:27;99089.22;;;4.03;100.00
60015;BME280;45867;52.480;6.056;2024-03-23T08:30:54;99123.59;;;3.91;100.00
60015;BME280;45867;52.480;6.056;2024-03-23T08:33:24;99145.59;;;4.00;100.00
60015;BME280;45867;52.480;6.056;2024-03-23T08:36:03;99127.53;;;3.88;100.00
60015;BME280;45867;52.480;6.056;2024-03-23T08:38:29;99135.09;;;4.10;100.00
60015;BME280;45867;52.480;6.056;2024-03-23T08:41:10;99131.41;;;4.11;100.00
60015;BME280;45867;52.480;6.056;2024-03-23T08:43:38;99127.22;;;4.15;100.00
60015;BME280;45867;52.480;6.056;2024-03-23T08:46:15;99067.25;;;3.93;100.00
60015;BME280;45867;52.480;6.056;2024-03-23T08:51:30;99065.66;;;4.03;100.00
60015;BME280;45867;52.480;6.056;2024-03-23T08:53:55;99057.53;;;4.09;100.00
60015;BME280;45867;52.480;6.056;2024-03-23T08:56:21;99038.09;;;4.10;100.00
60015;BME280;45867;52.480;6.056;2024-03-23T08:58:46;98952.09;;;5.60;100.00
60015;BME280;45867;52.480;6.056;2024-03-23T09:01:13;98844.22;;;7.25;100.00
60015;BME280;45867;52.480;6.056;2024-03-23T09:03:43;98770.53;;;8.42;100.00
60015;BME280;45867;52.480;6.056;2024-03-23T09:08:36;98708.50;;;10.80;100.00
60015;BME280;45867;52.480;6.056;2024-03-23T09:11:06;98820.72;;;11.22;100.00
60015;BME280;45867;52.480;6.056;2024-03-23T09:13:36;98944.47;;;11.86;100.00
60015;BME280;45867;52.480;6.056;2024-03-23T09:16:03;99119.19;;;11.75;100.00
60015;BME280;45867;52.480;6.056;2024-03-23T09:18:32;99397.47;;;11.20;100.00
60015;BME280;45867;52.480;6.056;2024-03-23T09:20:59;99573.78;;;10.17;100.00
60015;BME280;45867;52.480;6.056;2024-03-23T09:23:26;99652.72;;;10.15;100.00
60015;BME280;45867;52.480;6.056;2024-03-23T09:25:52;99774.78;;;8.89;100.00
60015;BME280;45867;52.480;6.056;2024-03-23T09:28:18;99777.84;;;8.38;100.00
60015;BME280;45867;52.480;6.056;2024-03-23T09:30:43;99744.22;;;8.20;100.00
60015;BME280;45867;52.480;6.056;2024-03-23T09:33:11;99787.81;;;8.12;100.00
60015;BME280;45867;52.480;6.056;2024-03-23T09:35:41;99765.41;;;8.97;100.00
60015;BME280;45867;52.480;6.056;2024-03-23T09:38:07;99769.78;;;9.74;100.00
60015;BME280;45867;52.480;6.056;2024-03-23T09:40:33;99860.34;;;10.28;100.00
60015;BME280;45867;52.480;6.056;2024-03-23T09:43:01;99924.69;;;10.66;100.00
60015;BME280;45867;52.480;6.056;2024-03-23T09:45:27;100024.31;;;11.05;100.00
60015;BME280;45867;52.480;6.056;2024-03-23T09:47:55;100033.16;;;11.14;100.00
60015;BME280;45867;52.480;6.056;2024-03-23T09:50:22;100108.25;;;11.47;100.00
60015;BME280;45867;52.480;6.056;2024-03-23T09:52:48;100178.78;;;10.68;100.00
60015;BME280;45867;52.480;6.056;2024-03-23T09:55:17;100198.44;;;9.69;100.00
60015;BME280;45867;52.480;6.056;2024-03-23T09:57:43;100216.91;;;8.54;100.00
60015;BME280;45867;52.480;6.056;2024-03-23T10:00:10;100176.00;;;8.00;100.00
60015;BME280;45867;52.480;6.056;2024-03-23T10:02:36;100132.84;;;6.93;100.00
60015;BME280;45867;52.480;6.056;2024-03-23T10:05:02;100136.59;;;6.44;100.00
60015;BME280;45867;52.480;6.056;2024-03-23T10:07:28;100051.75;;;6.21;100.00
60015;BME280;45867;52.480;6.056;2024-03-23T10:09:54;99969.19;;;6.38;100.00
60015;BME280;45867;52.480;6.056;2024-03-23T10:12:20;99895.03;;;7.02;100.00
60015;BME280;45867;52.480;6.056;2024-03-23T10:14:46;99896.31;;;8.06;100.00
60015;BME280;45867;52.480;6.056;2024-03-23T10:17:23;99859.59;;;9.41;100.00
60015;BME280;45867;52.480;6.056;2024-03-23T10:19:52;99892.00;;;10.38;100.00
60015;BME280;45867;52.480;6.056;2024-03-23T10:22:28;99967.44;;;10.78;100.00
60015;BME280;45867;52.480;6.056;2024-03-23T10:25:07;100048.41;;;11.41;100.00
60015;BME280;45867;52.480;6.056;2024-03-23T10:27:33;100102.97;;;11.09;100.00
60015;BME280;45867;52.480;6.056;2024-03-23T10:30:08;100194.38;;;11.55;100.00
60015;BME280;45867;52.480;6.056;2024-03-23T10:32:33;100252.44;;;11.56;100.00
60015;BME280;45867;52.480;6.056;2024-03-23T10:35:21;100305.66;;;10.00;100.00
60015;BME280;45867;52.480;6.056;2024-03-23T10:37:48;100291.69;;;9.35;100.00
60015;BME280;45867;52.480;6.056;2024-03-23T10:40:13;100214.22;;;9.79;100.00
60015;BME280;45867;52.480;6.056;2024-03-23T10:42:39;100152.97;;;10.54;100.00
60015;BME280;45867;52.480;6.056;2024-03-23T10:45:07;100212.88;;;10.16;100.00
60015;BME280;45867;52.480;6.056;2024-03-23T10:47:35;100184.88;;;10.10;100.00
60015;BME280;45867;52.480;6.056;2024-03-23T10:50:01;100132.56;;;11.36;100.00
60015;BME280;45867;52.480;6.056;2024-03-23T10:52:27;100213.81;;;10.88;100.00
60015;BME280;45867;52.480;6.056;2024-03-23T10:54:55;100212.44;;;11.53;100.00
60015;BME280;45867;52.480;6.056;2024-03-23T10:57:36;100243.94;;;11.60;100.00
60015;BME280;45867;52.480;6.056;2024-03-23T11:00:03;100065.91;;;12.72;100.00
60015;BME280;45867;52.480;6.056;2024-03-23T11:02:30;99901.81;;;12.86;100.00
60015;BME280;45867;52.480;6.056;2024-03-23T11:04:55;99934.00;;;11.43;100.00
60015;BME280;45867;52.480;6.056;2024-03-23T11:07:28;99929.69;;;9.87;100.00
60015;BME280;45867;52.480;6.056;2024-03-23T11:09:54;99882.13;;;9.09;100.00
60015;BME280;45867;52.480;6.056;2024-03-23T11:12:27;99969.34;;;9.09;100.00
60015;BME280;45867;52.480;6.056;2024-03-23T11:14:57;100028.50;;;8.74;100.00
60015;BME280;45867;52.480;6.056;2024-03-23T11:17:25;100016.06;;;10.69;100.00
60015;BME280;45867;52.480;6.056;2024-03-23T11:20:02;100000.53;;;10.62;100.00
60015;BME280;45867;52.480;6.056;2024-03-23T11:25:23;99941.72;;;13.17;100.00
60015;BME280;45867;52.480;6.056;2024-03-23T11:27:51;100061.69;;;10.65;100.00
60015;BME280;45867;52.480;6.056;2024-03-23T11:30:19;100020.69;;;9.91;100.00
60015;BME280;45867;52.480;6.056;2024-03-23T11:32:46;100012.47;;;8.55;100.00
60015;BME280;45867;52.480;6.056;2024-03-23T11:35:31;100063.06;;;8.08;100.00
60015;BME280;45867;52.480;6.056;2024-03-23T11:38:19;100142.75;;;7.48;100.00
60015;BME280;45867;52.480;6.056;2024-03-23T11:40:46;100166.13;;;7.19;100.00
60015;BME280;45867;52.480;6.056;2024-03-23T11:43:19;100195.16;;;6.66;100.00
60015;BME280;45867;52.480;6.056;2024-03-23T11:45:50;100201.03;;;6.36;100.00
60015;BME280;45867;52.480;6.056;2024-03-23T11:48:18;100134.75;;;6.44;100.00
60015;BME280;45867;52.480;6.056;2024-03-23T11:50:45;100066.53;;;6.38;100.00
60015;BME280;45867;52.480;6.056;2024-03-23T11:55:50;100012.94;;;6.59;100.00
60015;BME280;45867;52.480;6.056;2024-03-23T11:58:18;99966.91;;;7.49;100.00
60015;BME280;45867;52.480;6.056;2024-03-23T12:03:17;99990.91;;;10.47;100.00
60015;BME280;45867;52.480;6.056;2024-03-23T12:05:49;100084.69;;;11.46;100.00
60015;BME280;45867;52.480;6.056;2024-03-23T12:08:23;100145.44;;;12.54;100.00
60015;BME280;45867;52.480;6.056;2024-03-23T12:13:33;100096.75;;;12.31;100.00
60015;BME280;45867;52.480;6.056;2024-03-23T12:16:17;99943.03;;;12.38;100.00
60015;BME280;45867;52.480;6.056;2024-03-23T12:18:46;99928.84;;;10.72;100.00
60015;BME280;45867;52.480;6.056;2024-03-23T12:21:11;99900.72;;;10.38;100.00
60015;BME280;45867;52.480;6.056;2024-03-23T12:23:39;99890.56;;;9.11;100.00
60015;BME280;45867;52.480;6.056;2024-03-23T12:26:05;99895.25;;;10.11;100.00
60015;BME280;45867;52.480;6.056;2024-03-23T12:28:31;99847.34;;;11.80;100.00
60015;BME280;45867;52.480;6.056;2024-03-23T12:31:03;99935.28;;;10.28;100.00
60015;BME280;45867;52.480;6.056;2024-03-23T12:33:29;99905.97;;;9.58;100.00
60015;BME280;45867;52.480;6.056;2024-03-23T12:35:54;99894.06;;;9.31;100.00
60015;BME280;45867;52.480;6.056;2024-03-23T12:38:20;99888.63;;;9.22;100.00
60015;BME280;45867;52.480;6.056;2024-03-23T12:40:49;99923.25;;;8.86;100.00
60015;BME280;45867;52.480;6.056;2024-03-23T12:43:15;100047.81;;;7.74;100.00
60015;BME280;45867;52.480;6.056;2024-03-23T12:45:46;100137.41;;;7.28;100.00
60015;BME280;45867;52.480;6.056;2024-03-23T12:48:11;100151.25;;;6.77;100.00
60015;BME280;45867;52.480;6.056;2024-03-23T12:50:37;100059.53;;;6.59;100.00
60015;BME280;45867;52.480;6.056;2024-03-23T12:53:03;100013.72;;;6.60;100.00
60015;BME280;45867;52.480;6.056;2024-03-23T12:55:28;99958.97;;;6.62;100.00
60015;BME280;45867;52.480;6.056;2024-03-23T12:57:57;99920.56;;;7.07;100.00
60015;BME280;45867;52.480;6.056;2024-03-23T13:00:22;99933.19;;;7.30;100.00
60015;BME280;45867;52.480;6.056;2024-03-23T13:02:48;99869.09;;;8.10;100.00
60015;BME280;45867;52.480;6.056;2024-03-23T13:05:14;99932.06;;;7.62;100.00
60015;BME280;45867;52.480;6.056;2024-03-23T13:07:42;99850.41;;;8.80;100.00
60015;BME280;45867;52.480;6.056;2024-03-23T13:10:11;99905.19;;;8.64;100.00
60015;BME280;45867;52.480;6.056;2024-03-23T13:12:37;99941.25;;;8.45;100.00
60015;BME280;45867;52.480;6.056;2024-03-23T13:15:03;99923.84;;;8.34;100.00
60015;BME280;45867;52.480;6.056;2024-03-23T13:17:29;99846.13;;;9.14;100.00
60015;BME280;45867;52.480;6.056;2024-03-23T13:19:55;99848.59;;;10.34;100.00
60015;BME280;45867;52.480;6.056;2024-03-23T13:22:23;99855.97;;;10.88;100.00
60015;BME280;45867;52.480;6.056;2024-03-23T13:24:49;99979.72;;;11.53;100.00
60015;BME280;45867;52.480;6.056;2024-03-23T13:27:15;100103.81;;;11.24;100.00
60015;BME280;45867;52.480;6.056;2024-03-23T13:29:40;100265.72;;;10.65;100.00
60015;BME280;45867;52.480;6.056;2024-03-23T13:32:06;100357.63;;;10.31;100.00
60015;BME280;45867;52.480;6.056;2024-03-23T13:34:32;100368.19;;;9.86;100.00
60015;BME280;45867;52.480;6.056;2024-03-23T13:36:57;100381.22;;;9.72;100.00
60015;BME280;45867;52.480;6.056;2024-03-23T13:39:23;100390.34;;;10.00;100.00
60015;BME280;45867;52.480;6.056;2024-03-23T13:41:49;100382.38;;;9.36;100.00
60015;BME280;45867;52.480;6.056;2024-03-23T13:44:15;100356.81;;;9.86;100.00
60015;BME280;45867;52.480;6.056;2024-03-23T13:46:41;100233.25;;;9.81;100.00
60015;BME280;45867;52.480;6.056;2024-03-23T13:49:40;100140.66;;;10.63;100.00
60015;BME280;45867;52.480;6.056;2024-03-23T13:52:00;100038.19;;;9.87;100.00
60015;BME280;45867;52.480;6.056;2024-03-23T13:54:26;100004.44;;;9.73;100.00
60015;BME280;45867;52.480;6.056;2024-03-23T13:56:53;99971.53;;;9.61;100.00
60015;BME280;45867;52.480;6.056;2024-03-23T13:59:19;99967.66;;;9.77;100.00
60015;BME280;45867;52.480;6.056;2024-03-23T14:01:45;99946.31;;;10.35;100.00
60015;BME280;45867;52.480;6.056;2024-03-23T14:04:13;99922.28;;;10.32;100.00
60015;BME280;45867;52.480;6.056;2024-03-23T14:06:39;99913.41;;;10.17;100.00